Time;durP1;ratioP1;P1;durP2;ratioP2;P2;SDS_P1;SDS_P2;PMS_P1;PMS_P2;Temp;Humidity;BMP_temperature;BMP_pressure;BME280_temperature;BME280_humidity;BME280_pressure;Samples;Min_cycle;Max_cycle;Signal;HPM_P1;HPM_P2
2021/07/06 00:00:26;;;;;;;2.70;2.30;;;;;;;14.51;nan;100397.88;5025129;28;20462;-80
2021/07/06 00:02:57;;;;;;;2.63;2.42;;;;;;;14.45;nan;100397.22;5013067;28;20033;-80
2021/07/06 00:05:24;;;;;;;3.58;2.50;;;;;;;14.42;nan;100394.69;5008740;28;20049;-80
2021/07/06 00:07:51;;;;;;;3.20;2.70;;;;;;;14.39;nan;100398.34;5011109;28;20149;-80
2021/07/06 00:10:20;;;;;;;4.63;2.70;;;;;;;14.35;nan;100400.25;5008214;28;20046;-80
2021/07/06 00:12:47;;;;;;;3.63;2.42;;;;;;;14.32;nan;100397.72;5010345;28;20041;-80
2021/07/06 00:15:24;;;;;;;2.80;2.40;;;;;;;14.30;nan;100399.59;5010436;28;20169;-81
2021/07/06 00:17:53;;;;;;;3.47;2.75;;;;;;;14.27;nan;100393.50;5011641;28;20061;-81
2021/07/06 00:20:26;;;;;;;2.60;2.40;;;;;;;14.24;nan;100402.47;5026477;28;20042;-81
2021/07/06 00:22:56;;;;;;;4.57;2.70;;;;;;;14.21;nan;100405.28;4996971;28;20176;-80
2021/07/06 00:25:27;;;;;;;4.15;2.60;;;;;;;14.20;nan;100397.34;4992463;28;20046;-80
2021/07/06 00:27:54;;;;;;;3.58;2.55;;;;;;;14.15;nan;100409.97;5004268;28;20038;-80
2021/07/06 00:30:22;;;;;;;5.10;3.13;;;;;;;14.18;nan;100401.84;5008540;28;20038;-81
2021/07/06 00:32:52;;;;;;;2.67;2.47;;;;;;;14.16;nan;100406.38;5021095;28;20046;-80
2021/07/06 00:35:19;;;;;;;3.53;2.75;;;;;;;14.09;nan;100401.28;5006154;28;20775;-80
2021/07/06 00:37:46;;;;;;;3.17;2.58;;;;;;;14.03;nan;100406.84;5007616;28;20069;-80
2021/07/06 00:40:14;;;;;;;2.78;2.50;;;;;;;14.02;nan;100415.72;5006686;28;20042;-81
2021/07/06 00:42:42;;;;;;;3.45;2.40;;;;;;;14.02;nan;100405.09;5024200;28;20029;-80
2021/07/06 00:45:13;;;;;;;2.80;2.50;;;;;;;14.00;nan;100404.31;5008502;28;20030;-80
2021/07/06 00:47:41;;;;;;;2.95;2.63;;;;;;;13.96;nan;100400.06;5002732;28;20045;-80
2021/07/06 00:50:18;;;;;;;4.75;2.63;;;;;;;13.93;nan;100404.59;5023211;28;20165;-80
2021/07/06 00:52:45;;;;;;;2.47;2.28;;;;;;;13.92;nan;100403.72;5025242;28;20412;-80
2021/07/06 00:55:15;;;;;;;3.05;2.72;;;;;;;13.92;nan;100406.38;5006888;28;20042;-80
2021/07/06 00:57:47;;;;;;;3.15;2.70;;;;;;;13.89;nan;100397.69;5026300;28;20042;-80
2021/07/06 01:00:19;;;;;;;3.30;2.55;;;;;;;13.93;nan;100396.63;5024747;28;20600;-80
2021/07/06 01:02:47;;;;;;;3.65;2.97;;;;;;;13.93;nan;100401.94;4993476;28;20073;-81
2021/07/06 01:05:16;;;;;;;3.13;2.85;;;;;;;13.86;nan;100406.63;5016157;28;20067;-80
2021/07/06 01:07:43;;;;;;;2.97;2.67;;;;;;;13.85;nan;100402.22;5011411;28;20038;-80
2021/07/06 01:10:11;;;;;;;3.70;2.55;;;;;;;13.92;nan;100395.75;5001909;28;20085;-81
2021/07/06 01:12:38;;;;;;;3.47;3.17;;;;;;;13.89;nan;100400.34;5010764;28;20545;-80
2021/07/06 01:15:08;;;;;;;3.42;2.80;;;;;;;13.89;nan;100395.91;5007971;28;20213;-81
2021/07/06 01:17:37;;;;;;;3.13;2.83;;;;;;;13.90;nan;100389.66;5016596;28;20038;-80
2021/07/06 01:20:14;;;;;;;3.28;2.75;;;;;;;13.87;nan;100383.56;5022345;28;20069;-80
2021/07/06 01:22:43;;;;;;;4.25;2.70;;;;;;;13.85;nan;100385.44;5008440;28;20502;-80
2021/07/06 01:25:11;;;;;;;2.65;2.45;;;;;;;13.83;nan;100389.94;5008512;28;20065;-80
2021/07/06 01:27:38;;;;;;;3.83;2.80;;;;;;;13.80;nan;100396.25;5010691;28;20076;-80
2021/07/06 01:30:08;;;;;;;4.10;2.80;;;;;;;13.81;nan;100392.66;5008000;28;20042;-80
2021/07/06 01:32:39;;;;;;;3.05;2.75;;;;;;;13.91;nan;100390.53;5010263;28;20065;-80
2021/07/06 01:35:10;;;;;;;3.53;3.08;;;;;;;13.94;nan;100383.28;5024407;28;20077;-81
2021/07/06 01:37:47;;;;;;;3.60;2.67;;;;;;;13.88;nan;100382.69;5026522;28;20049;-80
2021/07/06 01:40:16;;;;;;;5.53;3.42;;;;;;;13.89;nan;100382.63;5020913;28;20045;-80
2021/07/06 01:42:43;;;;;;;4.32;2.60;;;;;;;13.93;nan;100373.59;4993938;28;20065;-80
2021/07/06 01:45:14;;;;;;;3.42;2.70;;;;;;;13.95;nan;100370.88;5024492;28;20053;-81
2021/07/06 01:47:46;;;;;;;3.15;2.72;;;;;;;13.97;nan;100375.22;5026889;28;20042;-80
2021/07/06 01:50:16;;;;;;;4.25;2.80;;;;;;;13.91;nan;100364.81;5003825;28;20039;-83
2021/07/06 01:52:51;;;;;;;3.80;2.80;;;;;;;13.95;nan;100365.56;5009685;28;20519;-80
2021/07/06 01:55:20;;;;;;;3.10;2.80;;;;;;;13.91;nan;100367.47;5010819;28;20607;-81
2021/07/06 01:57:50;;;;;;;3.28;2.70;;;;;;;13.89;nan;100371.13;5027602;28;20096;-80
2021/07/06 02:00:23;;;;;;;3.58;2.90;;;;;;;13.79;nan;100373.28;4989202;28;20042;-80
2021/07/06 02:02:52;;;;;;;3.60;2.88;;;;;;;13.77;nan;100377.75;5010595;28;20550;-80
2021/07/06 02:05:29;;;;;;;3.10;2.80;;;;;;;13.72;nan;100377.09;4993043;28;20057;-80
2021/07/06 02:07:56;;;;;;;3.38;3.08;;;;;;;13.72;nan;100379.75;5010566;28;20073;-80
2021/07/06 02:10:25;;;;;;;2.97;2.67;;;;;;;13.74;nan;100377.88;5024273;28;20189;-80
2021/07/06 02:12:58;;;;;;;4.25;2.83;;;;;;;13.72;nan;100377.09;5008380;28;20524;-80
2021/07/06 02:15:28;;;;;;;3.50;2.75;;;;;;;13.70;nan;100368.28;4993280;28;20038;-80
2021/07/06 02:17:56;;;;;;;6.38;3.25;;;;;;;13.66;nan;100362.25;5009904;28;20110;-80
2021/07/06 02:20:30;;;;;;;4.35;3.33;;;;;;;13.70;nan;100361.19;5008275;28;20050;-80
2021/07/06 02:22:57;;;;;;;3.55;2.90;;;;;;;13.76;nan;100366.28;5026852;28;20069;-79
2021/07/06 02:25:24;;;;;;;3.10;2.80;;;;;;;13.80;nan;100361.72;5008281;28;20507;-80
2021/07/06 02:27:53;;;;;;;3.92;3.30;;;;;;;13.78;nan;100369.72;5023034;28;20042;-79
2021/07/06 02:30:24;;;;;;;3.60;2.95;;;;;;;13.78;nan;100364.41;5000516;28;20050;-79
2021/07/06 02:32:56;;;;;;;3.75;3.13;;;;;;;13.75;nan;100371.66;5026686;28;20046;-80
2021/07/06 02:35:27;;;;;;;2.95;2.65;;;;;;;13.79;nan;100367.97;4994825;28;20393;-79
2021/07/06 02:37:56;;;;;;;4.13;3.20;;;;;;;13.84;nan;100376.59;5026955;28;20559;-80
2021/07/06 02:40:25;;;;;;;3.30;3.00;;;;;;;13.88;nan;100375.56;5011697;28;20164;-80
2021/07/06 02:42:56;;;;;;;5.43;3.80;;;;;;;13.90;nan;100371.06;5020271;28;20053;-80
2021/07/06 02:45:23;;;;;;;3.65;3.10;;;;;;;13.89;nan;100373.78;5012478;28;20953;-80
2021/07/06 02:47:50;;;;;;;5.05;3.22;;;;;;;13.95;nan;100371.72;5014406;28;20463;-80
2021/07/06 02:50:19;;;;;;;3.95;3.05;;;;;;;13.96;nan;100378.81;5012299;28;20045;-80
2021/07/06 02:52:46;;;;;;;3.78;3.42;;;;;;;14.03;nan;100374.94;5013897;28;20540;-80
2021/07/06 02:55:13;;;;;;;4.03;2.90;;;;;;;14.00;nan;100369.78;5012498;28;20030;-81
2021/07/06 02:57:40;;;;;;;3.70;3.00;;;;;;;14.04;nan;100376.72;5013452;28;20038;-80
2021/07/06 03:00:16;;;;;;;4.40;3.38;;;;;;;14.09;nan;100377.38;5009267;28;20039;-80
2021/07/06 03:02:45;;;;;;;4.13;3.47;;;;;;;14.14;nan;100371.03;4994823;28;20057;-80
2021/07/06 03:05:13;;;;;;;3.28;2.97;;;;;;;14.12;nan;100379.03;5029167;28;20042;-79
2021/07/06 03:07:41;;;;;;;3.15;2.85;;;;;;;14.12;nan;100367.56;5028966;28;20041;-80
2021/07/06 03:10:10;;;;;;;3.53;3.08;;;;;;;14.14;nan;100363.94;5029711;28;20070;-81
2021/07/06 03:12:38;;;;;;;4.05;3.45;;;;;;;14.21;nan;100372.50;5013975;28;20034;-80
2021/07/06 03:15:06;;;;;;;3.50;3.20;;;;;;;14.18;nan;100362.88;5027702;28;20062;-80
2021/07/06 03:17:33;;;;;;;3.42;3.13;;;;;;;14.21;nan;100360.09;5028623;28;20070;-80
2021/07/06 03:20:02;;;;;;;5.35;2.97;;;;;;;14.23;nan;100362.69;4991190;28;20049;-80
2021/07/06 03:22:29;;;;;;;4.45;3.42;;;;;;;14.23;nan;100354.72;5012245;28;20115;-80
2021/07/06 03:24:56;;;;;;;3.45;3.15;;;;;;;14.29;nan;100355.34;4997622;28;20061;-80
2021/07/06 03:27:23;;;;;;;3.88;2.95;;;;;;;14.38;nan;100362.09;5012510;28;20046;-81
2021/07/06 03:29:50;;;;;;;4.00;3.08;;;;;;;14.40;nan;100356.69;5014621;28;20080;-80
2021/07/06 03:32:17;;;;;;;4.32;2.85;;;;;;;14.42;nan;100360.16;5012030;28;20034;-80
2021/07/06 03:34:44;;;;;;;4.10;3.00;;;;;;;14.53;nan;100348.16;4995710;28;20532;-79
2021/07/06 03:37:11;;;;;;;3.55;3.20;;;;;;;14.52;nan;100356.22;5010619;28;20045;-79
2021/07/06 03:39:39;;;;;;;3.50;3.20;;;;;;;14.52;nan;100345.56;5028903;28;20104;-79
2021/07/06 03:42:07;;;;;;;3.40;3.10;;;;;;;14.47;nan;100350.25;4994677;28;20045;-80
2021/07/06 03:44:36;;;;;;;3.13;2.83;;;;;;;14.46;nan;100345.81;5018741;28;20046;-80
2021/07/06 03:47:04;;;;;;;3.40;3.05;;;;;;;14.46;nan;100351.13;5010216;28;20496;-80
2021/07/06 03:49:32;;;;;;;3.72;3.40;;;;;;;14.55;nan;100343.66;4998320;28;20542;-81
2021/07/06 03:52:00;;;;;;;4.85;3.38;;;;;;;14.57;nan;100344.47;4979540;28;20046;-81
2021/07/06 03:54:28;;;;;;;3.30;3.00;;;;;;;14.57;nan;100352.44;5013390;28;20038;-80
2021/07/06 03:56:55;;;;;;;3.40;3.10;;;;;;;14.57;nan;100354.22;4994778;28;20053;-81
2021/07/06 03:59:22;;;;;;;3.00;2.70;;;;;;;14.57;nan;100351.56;5012665;28;20048;-81
2021/07/06 04:01:49;;;;;;;3.47;3.17;;;;;;;14.55;nan;100356.97;5000360;28;20641;-80
2021/07/06 04:04:16;;;;;;;3.58;3.10;;;;;;;14.53;nan;100353.47;5030399;28;20038;-80
2021/07/06 04:06:43;;;;;;;6.20;3.33;;;;;;;14.55;nan;100350.78;4995350;28;20041;-80
2021/07/06 04:09:10;;;;;;;3.30;3.00;;;;;;;14.55;nan;100350.78;4996526;28;20046;-80
2021/07/06 04:11:37;;;;;;;5.13;3.38;;;;;;;14.52;nan;100343.78;5011861;28;20482;-80
2021/07/06 04:14:04;;;;;;;4.00;3.42;;;;;;;14.62;nan;100350.44;5028924;28;20419;-80
2021/07/06 04:16:31;;;;;;;4.28;3.25;;;;;;;14.61;nan;100350.50;5011917;28;20573;-80
2021/07/06 04:18:58;;;;;;;5.13;3.17;;;;;;;14.63;nan;100340.69;5010694;28;20041;-80
2021/07/06 04:21:26;;;;;;;3.67;3.38;;;;;;;14.71;nan;100350.97;5007398;28;20061;-81
2021/07/06 04:23:53;;;;;;;3.53;3.22;;;;;;;14.72;nan;100358.06;5028947;28;20046;-80
2021/07/06 04:26:20;;;;;;;4.88;3.80;;;;;;;14.79;nan;100346.19;5010068;28;20097;-80
2021/07/06 04:28:46;;;;;;;3.92;3.55;;;;;;;14.87;nan;100342.28;5009095;28;20411;-80
2021/07/06 04:31:13;;;;;;;5.32;3.50;;;;;;;14.97;nan;100340.13;4993618;28;20098;-80
2021/07/06 04:33:43;;;;;;;4.57;3.38;;;;;;;15.11;nan;100348.31;5014162;28;20046;-80
2021/07/06 04:36:10;;;;;;;3.78;3.20;;;;;;;15.20;nan;100344.41;4994383;28;20061;-81
2021/07/06 04:38:36;;;;;;;4.45;3.13;;;;;;;15.37;nan;100351.63;5013814;28;20073;-80
2021/07/06 04:41:03;;;;;;;3.63;3.05;;;;;;;15.45;nan;100347.69;5010469;28;20087;-80
2021/07/06 04:43:30;;;;;;;7.28;3.40;;;;;;;15.55;nan;100347.25;5028151;28;20069;-80
2021/07/06 04:45:57;;;;;;;4.32;2.90;;;;;;;15.70;nan;100343.94;5006355;28;20038;-80
2021/07/06 04:48:23;;;;;;;3.72;2.72;;;;;;;15.78;nan;100344.44;4992884;28;20048;-80
2021/07/06 04:50:50;;;;;;;3.15;2.67;;;;;;;15.88;nan;100345.72;4999674;28;20124;-80
2021/07/06 04:53:18;;;;;;;3.83;2.80;;;;;;;15.98;nan;100336.38;5023751;28;20093;-80
2021/07/06 04:55:45;;;;;;;4.65;2.97;;;;;;;16.02;nan;100339.75;5010164;28;20123;-79
2021/07/06 04:58:12;;;;;;;3.90;3.03;;;;;;;16.15;nan;100342.69;4989056;28;20120;-80
2021/07/06 05:00:39;;;;;;;3.72;3.30;;;;;;;16.52;nan;100339.94;4991539;28;20061;-79
2021/07/06 05:03:05;;;;;;;2.83;2.55;;;;;;;16.65;nan;100344.63;4994233;28;20069;-83
2021/07/06 05:05:38;;;;;;;3.08;2.65;;;;;;;16.83;nan;100341.94;5008912;28;20080;-82
2021/07/06 05:08:05;;;;;;;3.53;2.50;;;;;;;16.85;nan;100336.53;4997256;28;20049;-83
2021/07/06 05:10:34;;;;;;;3.13;2.20;;;;;;;17.04;nan;100342.63;4995144;28;20085;-81
2021/07/06 05:13:01;;;;;;;2.22;2.03;;;;;;;16.92;nan;100345.94;5011772;28;20195;-79
2021/07/06 05:15:28;;;;;;;2.85;2.13;;;;;;;17.00;nan;100343.75;5009098;28;20073;-80
2021/07/06 05:17:55;;;;;;;3.70;2.22;;;;;;;17.14;nan;100351.88;5023032;28;20057;-77
2021/07/06 05:20:22;;;;;;;4.03;2.38;;;;;;;17.15;nan;100352.72;5024990;28;20045;-79
2021/07/06 05:22:49;;;;;;;4.55;2.65;;;;;;;17.23;nan;100350.53;4993041;28;20054;-78
2021/07/06 05:25:15;;;;;;;3.42;2.53;;;;;;;17.28;nan;100347.63;5009610;28;20049;-78
2021/07/06 05:27:43;;;;;;;2.40;2.20;;;;;;;17.32;nan;100351.84;5006195;28;20530;-78
2021/07/06 05:30:11;;;;;;;3.67;2.90;;;;;;;17.45;nan;100343.09;5009038;28;20044;-79
2021/07/06 05:32:38;;;;;;;2.47;2.15;;;;;;;17.62;nan;100349.34;4996242;28;20076;-79
2021/07/06 05:35:08;;;;;;;2.50;2.30;;;;;;;17.65;nan;100349.16;5012451;28;20045;-78
2021/07/06 05:37:36;;;;;;;4.68;2.95;;;;;;;17.67;nan;100348.16;5011415;28;20038;-79
2021/07/06 05:40:05;;;;;;;3.92;2.45;;;;;;;17.78;nan;100344.06;5009637;28;20042;-80
2021/07/06 05:42:36;;;;;;;3.53;2.60;;;;;;;17.94;nan;100343.13;5010495;28;20048;-79
2021/07/06 05:45:04;;;;;;;3.33;2.35;;;;;;;17.99;nan;100358.88;5007398;28;20096;-79
2021/07/06 05:47:35;;;;;;;2.97;2.45;;;;;;;18.12;nan;100349.25;5009247;28;20054;-79
2021/07/06 05:50:03;;;;;;;3.10;2.60;;;;;;;18.30;nan;100347.31;5006395;28;20065;-79
2021/07/06 05:52:30;;;;;;;3.47;2.58;;;;;;;18.23;nan;100348.63;5012434;28;20048;-80
2021/07/06 05:54:56;;;;;;;2.50;2.30;;;;;;;18.33;nan;100346.28;5012169;28;20057;-79
2021/07/06 05:57:29;;;;;;;3.15;2.40;;;;;;;18.54;nan;100347.72;5025407;28;20066;-81
2021/07/06 06:00:00;;;;;;;3.37;2.80;;;;;;;18.59;nan;100340.31;5011991;28;20066;-78
2021/07/06 06:02:28;;;;;;;3.20;2.90;;;;;;;18.80;nan;100340.88;5010626;28;20050;-81
2021/07/06 06:04:55;;;;;;;4.70;2.90;;;;;;;18.92;nan;100340.16;4996109;28;20042;-81
2021/07/06 06:07:23;;;;;;;5.45;2.70;;;;;;;19.08;nan;100342.72;5028737;28;20535;-81
2021/07/06 06:09:50;;;;;;;3.08;2.58;;;;;;;19.33;nan;100334.91;5016315;28;20052;-80
2021/07/06 06:12:17;;;;;;;3.75;2.50;;;;;;;19.55;nan;100336.28;5016219;28;20056;-81
2021/07/06 06:14:43;;;;;;;3.05;2.75;;;;;;;19.59;nan;100325.31;5020255;28;20072;-80
2021/07/06 06:17:10;;;;;;;7.22;3.55;;;;;;;19.67;nan;100322.13;5029250;28;20049;-80
2021/07/06 06:19:37;;;;;;;3.42;2.88;;;;;;;19.82;nan;100326.50;5033298;28;20510;-80
2021/07/06 06:22:04;;;;;;;2.63;2.42;;;;;;;19.83;nan;100333.59;5017266;28;20033;-82
2021/07/06 06:24:31;;;;;;;3.55;3.22;;;;;;;19.99;nan;100321.88;5024177;28;20543;-80
2021/07/06 06:26:58;;;;;;;3.90;2.70;;;;;;;20.12;nan;100323.69;5028454;28;20048;-81
2021/07/06 06:29:24;;;;;;;3.53;2.80;;;;;;;20.20;nan;100325.88;5009988;28;20492;-81
2021/07/06 06:31:51;;;;;;;3.75;2.90;;;;;;;20.29;nan;100329.75;5014904;28;20038;-80
2021/07/06 06:34:18;;;;;;;3.03;2.72;;;;;;;20.35;nan;100326.69;5016156;28;20443;-81
2021/07/06 06:36:45;;;;;;;2.58;2.35;;;;;;;20.46;nan;100322.34;5032002;28;20073;-81
2021/07/06 06:39:11;;;;;;;4.25;2.80;;;;;;;20.69;nan;100323.47;5015167;28;20044;-81
2021/07/06 06:41:39;;;;;;;4.25;3.00;;;;;;;20.93;nan;100322.75;5030657;28;20056;-81
2021/07/06 06:44:05;;;;;;;3.28;2.97;;;;;;;21.09;nan;100326.09;5031828;28;20034;-80
2021/07/06 06:46:32;;;;;;;4.07;3.03;;;;;;;21.40;nan;100315.94;5031003;28;20103;-80
2021/07/06 06:49:04;;;;;;;3.17;2.88;;;;;;;21.58;nan;100312.78;5015876;28;20129;-82
2021/07/06 06:51:31;;;;;;;3.78;2.92;;;;;;;21.83;nan;100306.50;5012399;28;20467;-81
2021/07/06 06:53:59;;;;;;;2.88;2.60;;;;;;;22.07;nan;100303.88;5030069;28;20085;-82
2021/07/06 06:56:26;;;;;;;4.40;2.70;;;;;;;22.30;nan;100304.84;5029105;28;20062;-80
2021/07/06 06:58:52;;;;;;;3.95;2.80;;;;;;;22.72;nan;100305.28;5015533;28;20037;-81
2021/07/06 07:01:19;;;;;;;3.25;2.90;;;;;;;22.97;nan;100299.75;5036127;28;20140;-83
2021/07/06 07:03:47;;;;;;;4.38;2.97;;;;;;;23.22;nan;100297.81;5033029;28;20076;-80
2021/07/06 07:06:13;;;;;;;2.88;2.65;;;;;;;23.34;nan;100298.66;5007945;28;20038;-81
2021/07/06 07:08:40;;;;;;;3.67;2.80;;;;;;;23.48;nan;100303.84;5012993;28;20034;-82
2021/07/06 07:11:07;;;;;;;3.95;2.85;;;;;;;23.67;nan;100297.84;5014757;28;20419;-82
2021/07/06 07:13:34;;;;;;;3.17;2.88;;;;;;;23.80;nan;100301.28;5016972;28;20077;-81
2021/07/06 07:16:02;;;;;;;4.43;2.50;;;;;;;23.88;nan;100304.22;5004125;28;20052;-82
2021/07/06 07:18:28;;;;;;;3.70;2.42;;;;;;;24.11;nan;100300.44;5028619;28;20049;-82
2021/07/06 07:20:55;;;;;;;3.35;2.58;;;;;;;24.12;nan;100295.91;5030737;28;20038;-81
2021/07/06 07:23:22;;;;;;;2.75;2.55;;;;;;;24.17;nan;100301.81;5019773;28;20050;-83
2021/07/06 07:25:49;;;;;;;2.90;2.50;;;;;;;24.12;nan;100296.78;5030934;28;20072;-83
2021/07/06 07:28:15;;;;;;;2.60;2.40;;;;;;;23.96;nan;100300.84;5024350;28;20041;-81
2021/07/06 07:30:42;;;;;;;4.40;2.30;;;;;;;24.15;nan;100293.84;5011273;28;20054;-82
2021/07/06 07:33:09;;;;;;;2.53;2.33;;;;;;;24.34;nan;100287.78;5029358;28;20658;-80
2021/07/06 07:35:36;;;;;;;3.35;2.60;;;;;;;24.28;nan;100299.06;5026013;28;20566;-82
2021/07/06 07:38:02;;;;;;;4.10;2.35;;;;;;;24.42;nan;100296.09;5020072;28;20034;-82
2021/07/06 07:40:29;;;;;;;3.05;2.53;;;;;;;24.55;nan;100298.63;5011193;28;20585;-82
2021/07/06 07:42:56;;;;;;;3.13;2.67;;;;;;;24.42;nan;100306.03;5028584;28;20077;-82
2021/07/06 07:45:23;;;;;;;3.15;2.60;;;;;;;24.55;nan;100303.16;5010116;28;20041;-82
2021/07/06 07:47:50;;;;;;;2.97;2.55;;;;;;;24.94;nan;100307.00;5013673;28;20077;-82
2021/07/06 07:50:16;;;;;;;3.28;2.63;;;;;;;25.20;nan;100308.34;5027452;28;20034;-80
2021/07/06 07:52:43;;;;;;;2.58;2.00;;;;;;;25.48;nan;100303.25;5028939;28;20096;-81
2021/07/06 07:55:11;;;;;;;2.45;2.20;;;;;;;25.66;nan;100304.31;5010640;28;20041;-80
2021/07/06 08:00:38;;;;;;;1.88;1.77;;;;;;;25.96;nan;100305.28;4948652;28;19926;-76
2021/07/06 08:03:05;;;;;;;3.60;2.53;;;;;;;26.08;nan;100301.47;4966404;28;20112;-75
2021/07/06 08:05:32;;;;;;;2.40;2.20;;;;;;;25.94;nan;100301.84;4993189;28;20047;-74
2021/07/06 08:07:59;;;;;;;3.92;2.38;;;;;;;25.88;nan;100310.50;4969765;28;20128;-76
2021/07/06 08:10:25;;;;;;;4.95;2.20;;;;;;;26.13;nan;100301.88;4979805;28;20077;-75
2021/07/06 08:12:53;;;;;;;3.15;2.10;;;;;;;26.13;nan;100301.88;4986928;28;20107;-75
2021/07/06 08:15:20;;;;;;;3.65;2.53;;;;;;;26.30;nan;100305.75;4998441;28;20073;-75
2021/07/06 08:17:47;;;;;;;2.30;2.10;;;;;;;26.25;nan;100299.91;4980245;28;20038;-74
2021/07/06 08:20:16;;;;;;;3.08;2.00;;;;;;;26.34;nan;100301.78;4970543;28;20081;-76
2021/07/06 08:22:43;;;;;;;2.08;1.88;;;;;;;26.50;nan;100293.13;4989950;28;20036;-76
2021/07/06 08:25:11;;;;;;;2.17;1.98;;;;;;;26.59;nan;100297.69;4989317;28;20070;-76
2021/07/06 08:27:37;;;;;;;3.10;1.90;;;;;;;26.74;nan;100301.69;4993980;28;20451;-76
2021/07/06 08:30:05;;;;;;;2.88;1.98;;;;;;;26.63;nan;100301.81;4996182;28;20121;-76
2021/07/06 08:32:32;;;;;;;3.03;1.70;;;;;;;26.58;nan;100301.41;4985187;28;20041;-75
2021/07/06 08:35:00;;;;;;;2.92;1.90;;;;;;;26.35;nan;100301.63;4985407;28;20038;-77
2021/07/06 08:37:27;;;;;;;2.35;1.92;;;;;;;26.26;nan;100301.63;4970517;28;20038;-75
2021/07/06 08:39:54;;;;;;;2.38;2.08;;;;;;;26.41;nan;100304.81;4993567;28;20069;-75
2021/07/06 08:42:21;;;;;;;2.92;2.00;;;;;;;26.43;nan;100297.41;4975587;28;20038;-76
2021/07/06 08:44:48;;;;;;;2.25;1.92;;;;;;;26.75;nan;100300.69;4958282;28;20112;-76
2021/07/06 08:47:16;;;;;;;2.05;1.85;;;;;;;26.73;nan;100302.66;4982672;28;20419;-75
2021/07/06 08:49:46;;;;;;;5.47;2.00;;;;;;;26.80;nan;100305.66;4971531;28;20399;-75
2021/07/06 08:52:15;;;;;;;3.30;2.10;;;;;;;26.65;nan;100302.50;4987964;28;20046;-74
2021/07/06 08:54:41;;;;;;;2.67;2.03;;;;;;;26.63;nan;100302.66;4961895;28;20045;-74
2021/07/06 08:57:08;;;;;;;2.13;1.92;;;;;;;26.91;nan;100294.66;4970541;28;20042;-75
2021/07/06 08:59:40;;;;;;;2.03;1.83;;;;;;;26.90;nan;100301.91;4970043;28;20069;-75
2021/07/06 09:02:11;;;;;;;3.05;1.90;;;;;;;27.08;nan;100306.66;4967949;28;20153;-76
2021/07/06 09:04:45;;;;;;;3.33;2.00;;;;;;;27.16;nan;100301.34;4974703;28;20050;-75
2021/07/06 09:07:12;;;;;;;2.38;1.75;;;;;;;27.56;nan;100300.19;4982863;28;20085;-75
2021/07/06 09:09:40;;;;;;;2.45;1.80;;;;;;;27.80;nan;100302.41;4971274;28;20074;-75
2021/07/06 09:12:08;;;;;;;3.40;1.80;;;;;;;27.94;nan;100297.34;4992629;28;20042;-77
2021/07/06 09:14:37;;;;;;;9.27;2.53;;;;;;;28.12;nan;100289.22;4986908;28;20150;-77
2021/07/06 09:17:24;;;;;;;2.20;1.70;;;;;;;28.21;nan;100299.16;4969213;28;20333;-76
2021/07/06 09:19:52;;;;;;;1.73;1.63;;;;;;;27.98;nan;100290.56;4964070;28;20061;-77
2021/07/06 09:22:20;;;;;;;3.35;1.80;;;;;;;27.84;nan;100304.69;5002270;28;20529;-76
2021/07/06 09:24:56;;;;;;;3.25;1.92;;;;;;;27.56;nan;100303.75;4995092;28;20042;-76
2021/07/06 09:27:35;;;;;;;2.58;1.88;;;;;;;27.50;nan;100307.09;4965913;28;20049;-76
2021/07/06 09:30:05;;;;;;;2.20;1.80;;;;;;;27.84;nan;100298.41;4969274;28;20049;-75
2021/07/06 09:32:44;;;;;;;2.20;2.00;;;;;;;28.09;nan;100296.81;4988873;28;20048;-75
2021/07/06 09:35:25;;;;;;;1.73;1.63;;;;;;;28.23;nan;100299.84;4954458;28;20039;-76
2021/07/06 09:38:03;;;;;;;2.00;1.70;;;;;;;28.17;nan;100294.19;4969998;28;20053;-76
2021/07/06 09:40:37;;;;;;;1.98;1.70;;;;;;;28.25;nan;100286.97;4967727;28;20055;-76
2021/07/06 09:43:28;;;;;;;3.15;1.80;;;;;;;28.54;nan;100280.47;4959121;28;20054;-77
2021/07/06 09:46:09;;;;;;;1.85;1.60;;;;;;;28.80;nan;100272.38;4972542;28;20758;-77
2021/07/06 09:48:39;;;;;;;1.70;1.60;;;;;;;28.77;nan;100279.00;4972137;28;20038;-76
2021/07/06 09:51:20;;;;;;;3.25;2.03;;;;;;;28.64;nan;100288.56;4983760;28;20073;-76
2021/07/06 09:53:51;;;;;;;2.75;2.00;;;;;;;28.41;nan;100271.84;4972310;28;20549;-76
2021/07/06 09:56:23;;;;;;;2.58;1.50;;;;;;;28.55;nan;100274.03;4987341;28;20066;-76
2021/07/06 09:58:57;;;;;;;3.33;1.85;;;;;;;28.67;nan;100264.63;4970316;28;20042;-76
2021/07/06 10:01:24;;;;;;;3.35;1.65;;;;;;;28.80;nan;100259.63;4969842;28;20260;-76
2021/07/06 10:03:53;;;;;;;1.70;1.60;;;;;;;29.03;nan;100270.03;4972728;28;20125;-76
2021/07/06 10:06:25;;;;;;;2.13;1.90;;;;;;;29.20;nan;100263.69;4971703;28;20129;-77
2021/07/06 10:08:53;;;;;;;4.18;2.30;;;;;;;29.44;nan;100269.25;4986676;28;20120;-77
2021/07/06 10:11:21;;;;;;;2.90;1.90;;;;;;;29.49;nan;100266.06;4971610;28;20042;-76
2021/07/06 10:13:49;;;;;;;2.00;1.80;;;;;;;29.40;nan;100267.00;4973708;28;20046;-77
2021/07/06 10:16:17;;;;;;;3.00;2.15;;;;;;;29.48;nan;100256.16;4970507;28;20034;-76
2021/07/06 10:18:44;;;;;;;2.20;1.80;;;;;;;29.42;nan;100256.78;4945530;28;20116;-77
2021/07/06 10:21:14;;;;;;;1.70;1.60;;;;;;;29.28;nan;100257.44;4970873;28;20047;-77
2021/07/06 10:23:43;;;;;;;1.70;1.60;;;;;;;29.16;nan;100251.38;4986696;28;20046;-76
2021/07/06 10:26:12;;;;;;;1.80;1.70;;;;;;;28.83;nan;100248.41;4957404;28;20050;-75
2021/07/06 10:28:38;;;;;;;23.98;21.80;;;;;;;29.17;nan;100256.66;4972637;28;20586;-76
2021/07/06 10:31:16;;;;;;;38.90;35.97;;;;;;;29.13;nan;100254.44;4972015;28;20061;-76
2021/07/06 10:33:44;;;;;;;24.23;21.95;;;;;;;29.17;nan;100250.38;4993564;28;20070;-77
2021/07/06 10:36:14;;;;;;;3.38;2.20;;;;;;;28.97;nan;100246.19;4956838;28;20144;-77
2021/07/06 10:38:43;;;;;;;2.35;2.10;;;;;;;29.26;nan;100245.81;4989358;28;20050;-76
2021/07/06 10:41:21;;;;;;;50.22;46.25;;;;;;;29.30;nan;100247.22;4987148;28;20136;-76
2021/07/06 10:43:53;;;;;;;5.90;5.32;;;;;;;29.26;nan;100244.00;4987562;28;20042;-76
2021/07/06 10:46:20;;;;;;;2.55;1.80;;;;;;;29.33;nan;100236.84;4964114;28;20096;-76
2021/07/06 10:48:48;;;;;;;2.65;1.80;;;;;;;29.30;nan;100242.63;4989461;28;20432;-78
2021/07/06 10:51:33;;;;;;;1.80;1.60;;;;;;;29.57;nan;100244.31;4957895;28;20502;-76
2021/07/06 10:54:12;;;;;;;2.38;1.90;;;;;;;29.68;nan;100238.59;4991527;28;20042;-77
2021/07/06 10:56:42;;;;;;;2.63;1.70;;;;;;;29.64;nan;100242.66;4969051;28;20046;-76
2021/07/06 10:59:27;;;;;;;5.43;2.38;;;;;;;29.79;nan;100242.88;4956884;28;20050;-76
2021/07/06 11:01:58;;;;;;;3.22;1.70;;;;;;;29.93;nan;100239.53;4990114;28;20054;-76
2021/07/06 11:04:42;;;;;;;2.85;1.88;;;;;;;30.00;nan;100243.25;4970153;28;20090;-77
2021/07/06 11:07:10;;;;;;;2.88;1.60;;;;;;;29.67;nan;100242.31;4986389;28;20101;-77
2021/07/06 11:09:37;;;;;;;2.38;1.70;;;;;;;29.72;nan;100233.66;4972862;28;20080;-76
2021/07/06 11:12:19;;;;;;;1.60;1.45;;;;;;;29.99;nan;100236.09;4984029;28;20786;-76
2021/07/06 11:14:47;;;;;;;1.40;1.30;;;;;;;30.16;nan;100234.28;4972526;28;20963;-77
2021/07/06 11:17:30;;;;;;;2.17;1.30;;;;;;;29.92;nan;100226.03;4979697;28;20593;-79
2021/07/06 11:19:58;;;;;;;2.22;1.60;;;;;;;29.81;nan;100237.25;4981826;28;20050;-78
2021/07/06 11:22:39;;;;;;;3.45;1.70;;;;;;;29.83;nan;100233.34;4970559;28;20129;-78
2021/07/06 11:25:20;;;;;;;2.13;1.50;;;;;;;29.83;nan;100229.75;4975349;28;20042;-76
2021/07/06 11:28:18;;;;;;;2.13;1.55;;;;;;;29.80;nan;100228.25;4973703;28;20134;-77
2021/07/06 11:30:50;;;;;;;2.28;1.70;;;;;;;29.73;nan;100226.34;4982816;28;20046;-77
2021/07/06 11:33:22;;;;;;;2.38;1.50;;;;;;;29.45;nan;100234.72;4983983;28;20054;-76
2021/07/06 11:35:56;;;;;;;2.08;1.48;;;;;;;29.29;nan;100221.88;4977321;28;20093;-77
2021/07/06 11:38:33;;;;;;;2.63;1.60;;;;;;;29.27;nan;100221.22;4956486;28;20403;-77
2021/07/06 11:41:03;;;;;;;4.00;1.55;;;;;;;29.47;nan;100221.78;4988733;28;20522;-76
2021/07/06 11:43:30;;;;;;;1.65;1.55;;;;;;;29.73;nan;100205.41;4971737;28;20038;-77
2021/07/06 11:46:08;;;;;;;1.80;1.70;;;;;;;29.80;nan;100205.59;4972303;28;20189;-77
2021/07/06 11:48:39;;;;;;;2.95;1.70;;;;;;;29.81;nan;100191.81;4983188;28;20070;-78
2021/07/06 11:51:12;;;;;;;2.53;1.85;;;;;;;29.84;nan;100193.34;4977499;28;20047;-77
2021/07/06 11:53:41;;;;;;;2.47;2.05;;;;;;;29.98;nan;100192.69;4972197;28;20423;-77